map of HGH home
HGH - Airport
Location
City:  Hangzhou, Zhejiang, China
Name:Xiaoshan International Airport
Old (Alt.):Jianqiao Airport
ICAO:ZSHC
IATA:HGH

Details
Type:Airport (Aerodrome, Airfield)
Use:Public/Civil, International (customs port of entry)
Latitude:3014'N (30.228)
Longitude:12026'E (120.433)
Elevation:23 ft (7 m)
Variation:5.53W (WMM2015 magnetic declination)
-0.08 annual change
Runways:2
Longest:11811 × 148 ft (3600 × 45 m), paved

Time
Time Zone:UTC+8
Local Time:

Weather
METAR:ZSHC 141230Z 06002MPS 5000 BR BKN020 08/07 Q1028 NOSIG

Related Locations
Nearby:
Farthest:RCQ: 12360 mi / 19891 km
Reconquista, S, AR

Find:

   beyond  
but within

Other Information
Maps:
NOTAMs:
Links:
Sources:

  
flag of China   

Airport Diagram

Airport diagram for HGH

Airport diagram PDF

Sectional Chart

Flight Planning
at skyvector.com

Satellite Image

Google Maps Satellite view

 

Copyright © 2004-2017 Karl L. Swartz. All rights reserved.
The Great Circle Mapper name and logo are trademarks of the Great Circle Mapper.
All other trademarks mentioned herein belong to their respective owners.
Please see credits for attibutions and further copyright information.

  Follow gcmap on Facebook Follow gcmap on Twitter Follow gcmap on Google+ GCmap on LinkedIn

hCard Microformat

Geo Microformat